Time;durP1;ratioP1;P1;durP2;ratioP2;P2;SDS_P1;SDS_P2;PMS_P1;PMS_P2;Temp;Humidity;BMP_temperature;BMP_pressure;BME280_temperature;BME280_humidity;BME280_pressure;Samples;Min_cycle;Max_cycle;Signal;HPM_P1;HPM_P2
2022/04/30 00:00:21;;;;;;;17.85;7.60;;;;;;;7.35;44.73;101902.91;1513573;93;20950;-75
2022/04/30 00:02:48;;;;;;;13.18;7.17;;;;;;;7.31;44.88;101894.27;1513197;93;21037;-76
2022/04/30 00:05:14;;;;;;;19.80;7.45;;;;;;;7.28;44.91;101900.64;1532343;93;20968;-76
2022/04/30 00:07:43;;;;;;;16.82;7.50;;;;;;;7.25;45.05;101898.05;1530757;93;21020;-77
2022/04/30 00:10:09;;;;;;;14.17;7.17;;;;;;;7.24;45.17;101892.45;1510184;93;20965;-76
2022/04/30 00:12:35;;;;;;;9.53;7.25;;;;;;;7.24;45.17;101896.73;1517043;93;21017;-76
2022/04/30 00:15:03;;;;;;;11.48;6.95;;;;;;;7.18;45.26;101894.05;1530569;93;20976;-76
2022/04/30 00:17:29;;;;;;;14.87;7.83;;;;;;;7.12;45.25;101887.09;1520877;93;20968;-76
2022/04/30 00:19:59;;;;;;;14.40;7.03;;;;;;;7.07;45.26;101887.42;1507418;93;21005;-76
2022/04/30 00:22:26;;;;;;;7.92;6.28;;;;;;;7.04;45.45;101887.78;1529179;93;21675;-78
2022/04/30 00:24:52;;;;;;;11.30;6.87;;;;;;;7.02;45.63;101896.75;1528444;93;21110;-77
2022/04/30 00:27:20;;;;;;;12.30;7.20;;;;;;;7.01;45.67;101892.45;1510794;93;21112;-79
2022/04/30 00:29:46;;;;;;;13.37;7.40;;;;;;;6.95;45.60;101897.05;1459114;89;5001115;-76
2022/04/30 00:32:13;;;;;;;11.85;7.17;;;;;;;6.89;45.72;101894.36;1579229;89;20982;-77
2022/04/30 00:34:40;;;;;;;14.18;7.00;;;;;;;6.87;45.82;101887.45;1597007;89;20914;-76
2022/04/30 00:37:08;;;;;;;12.33;7.17;;;;;;;6.81;45.96;101892.47;1601824;89;21009;-76
2022/04/30 00:39:35;;;;;;;11.85;6.75;;;;;;;6.78;46.02;101892.41;1606433;89;20958;-76
2022/04/30 00:42:01;;;;;;;10.05;6.33;;;;;;;6.75;46.17;101890.68;1600318;88;20931;-76
2022/04/30 00:44:28;;;;;;;14.33;6.30;;;;;;;6.75;46.29;101888.53;1606623;88;21005;-76
2022/04/30 00:46:57;;;;;;;14.35;6.47;;;;;;;6.73;46.40;101893.64;1606692;89;20926;-74
2022/04/30 00:49:23;;;;;;;12.18;6.87;;;;;;;6.69;46.46;101881.98;1593750;88;20978;-75
2022/04/30 00:51:54;;;;;;;9.93;6.28;;;;;;;6.72;46.51;101891.03;1595388;89;411510;-75
2022/04/30 00:54:26;;;;;;;11.83;6.72;;;;;;;6.71;46.60;101889.30;1592535;89;20970;-75
2022/04/30 00:56:58;;;;;;;8.90;5.78;;;;;;;6.69;46.56;101879.41;1604936;89;20941;-75
2022/04/30 00:59:25;;;;;;;9.90;5.87;;;;;;;6.66;46.63;101883.20;1598825;89;20954;-75
2022/04/30 01:01:51;;;;;;;10.18;6.50;;;;;;;6.61;46.73;101882.69;1603897;88;20946;-75
2022/04/30 01:04:19;;;;;;;12.43;5.55;;;;;;;6.59;46.88;101881.79;1604989;89;21525;-76
2022/04/30 01:07:01;;;;;;;9.50;5.80;;;;;;;6.58;46.96;101883.04;1594191;88;21005;-76
2022/04/30 01:09:32;;;;;;;11.80;5.80;;;;;;;6.56;46.97;101886.00;1592834;89;21436;-76
2022/04/30 01:12:09;;;;;;;10.75;5.85;;;;;;;6.51;47.00;101879.89;1592346;88;20933;-76
2022/04/30 01:14:34;;;;;;;;;;;;;;;6.47;47.00;101875.11;1606605;89;21096;-76
2022/04/30 01:17:06;;;;;;;9.50;5.78;;;;;;;6.43;47.87;101873.73;1601948;88;20187;-75
2022/04/30 01:19:42;;;;;;;11.43;6.25;;;;;;;6.39;47.23;101875.36;1605283;89;21054;-76
2022/04/30 01:22:23;;;;;;;12.58;6.12;;;;;;;6.36;47.30;101880.44;1589064;88;21592;-75
2022/04/30 01:24:55;;;;;;;12.35;7.55;;;;;;;6.33;47.40;101870.51;1599060;89;21081;-75
2022/04/30 01:27:23;;;;;;;16.00;6.10;;;;;;;6.30;47.45;101872.59;1586112;89;21559;-75
2022/04/30 01:29:50;;;;;;;8.75;6.05;;;;;;;6.28;47.57;101876.83;1594418;88;21101;-75
2022/04/30 01:37:45;;;;;;;13.18;6.20;;;;;;;6.14;47.66;101871.84;1594768;89;21137;-75
2022/04/30 01:40:13;;;;;;;9.13;5.40;;;;;;;6.11;47.74;101875.62;1578994;89;21048;-74
2022/04/30 01:42:43;;;;;;;10.10;5.47;;;;;;;6.07;47.76;101870.83;1590030;89;21136;-75
2022/04/30 01:45:10;;;;;;;11.57;5.85;;;;;;;6.05;47.84;101871.63;1597521;89;21407;-75
2022/04/30 01:47:39;;;;;;;6.80;5.40;;;;;;;6.05;48.01;101871.22;1606431;89;20899;-75
2022/04/30 01:50:07;;;;;;;8.95;5.65;;;;;;;6.07;48.15;101868.68;1594173;88;20953;-75
2022/04/30 01:52:33;;;;;;;11.03;5.62;;;;;;;6.07;48.15;101863.13;1597782;89;21061;-76
2022/04/30 01:55:00;;;;;;;8.23;5.65;;;;;;;6.07;48.21;101863.13;1604395;88;21148;-75
2022/04/30 01:57:27;;;;;;;7.78;4.50;;;;;;;6.07;48.29;101865.70;1604530;88;21105;-75
2022/04/30 01:59:55;;;;;;;7.70;5.08;;;;;;;6.06;48.37;101865.66;1603883;87;20945;-74
2022/04/30 02:02:26;;;;;;;8.75;5.55;;;;;;;6.05;48.35;101865.21;1606621;88;20930;-74
2022/04/30 02:04:55;;;;;;;8.35;6.42;;;;;;;6.03;48.42;101857.48;1606592;88;20945;-76
2022/04/30 02:07:22;;;;;;;7.50;6.25;;;;;;;6.02;48.54;101863.44;1606474;88;21536;-75
2022/04/30 02:09:51;;;;;;;12.93;6.33;;;;;;;6.01;48.54;101860.84;1581012;88;21004;-76
2022/04/30 02:12:18;;;;;;;8.18;5.12;;;;;;;6.00;48.66;101859.11;1577435;89;20972;-75
2022/04/30 02:14:51;;;;;;;9.83;6.42;;;;;;;5.95;48.64;101859.00;1606653;88;20961;-76
2022/04/30 02:17:20;;;;;;;8.85;5.85;;;;;;;5.92;48.78;101854.66;1602463;88;20938;-75
2022/04/30 02:22:26;;;;;;;9.98;6.62;;;;;;;5.91;48.99;101854.63;1549891;89;20994;-74
2022/04/30 02:24:54;;;;;;;12.88;5.80;;;;;;;5.92;49.02;101850.81;1604373;89;21490;-75
2022/04/30 02:27:23;;;;;;;8.78;5.58;;;;;;;5.93;49.08;101852.96;1576760;90;21001;-76
2022/04/30 02:29:49;;;;;;;10.80;6.00;;;;;;;5.95;49.23;101852.58;1583246;89;20951;-76
2022/04/30 02:32:17;;;;;;;8.08;5.17;;;;;;;5.93;49.27;101848.70;1601439;89;20960;-76
2022/04/30 02:34:43;;;;;;;11.22;5.55;;;;;;;5.93;49.33;101843.98;1585511;89;20977;-76
2022/04/30 02:37:13;;;;;;;11.22;5.47;;;;;;;5.95;49.38;101843.59;1583604;89;21159;-75
2022/04/30 02:39:37;;;;;;;7.20;5.42;;;;;;;5.96;49.45;101841.48;1604388;88;21095;-75
2022/04/30 02:42:04;;;;;;;10.40;5.23;;;;;;;5.95;49.50;101844.88;1616378;88;20962;-75
2022/04/30 02:44:32;;;;;;;7.35;5.37;;;;;;;5.93;49.59;101837.56;1615954;88;21072;-74
2022/04/30 02:46:57;;;;;;;6.53;5.37;;;;;;;5.95;49.64;101839.75;1616028;88;22222;-75
2022/04/30 02:49:24;;;;;;;8.27;5.33;;;;;;;5.92;49.70;101835.41;1616150;88;20944;-74
2022/04/30 02:51:51;;;;;;;8.33;5.33;;;;;;;5.92;49.76;101831.97;1615304;88;21032;-76
2022/04/30 02:54:17;;;;;;;8.68;5.85;;;;;;;5.92;49.84;101828.99;1602774;88;21151;-75
2022/04/30 02:56:43;;;;;;;7.67;5.63;;;;;;;5.92;49.92;101821.29;1615991;88;20957;-75
2022/04/30 03:01:54;;;;;;;9.98;5.35;;;;;;;5.93;50.06;101816.61;1614234;88;21148;-75
2022/04/30 03:04:20;;;;;;;8.38;5.42;;;;;;;5.93;50.05;101810.61;1616221;88;28503;-76
2022/04/30 03:06:47;;;;;;;10.15;5.35;;;;;;;5.91;50.09;101805.44;1593636;88;20961;-76
2022/04/30 03:09:13;;;;;;;12.47;5.87;;;;;;;5.89;50.19;101812.23;1605671;88;21143;-76
2022/04/30 03:11:43;;;;;;;14.00;7.25;;;;;;;5.88;50.21;101805.34;1616031;88;21083;-75
2022/04/30 03:14:09;;;;;;;11.12;6.22;;;;;;;5.87;50.25;101806.59;1615745;88;21061;-75
2022/04/30 03:22:05;;;;;;;10.28;5.92;;;;;;;5.77;50.47;101802.94;1616142;88;21096;-73
2022/04/30 03:24:31;;;;;;;11.65;6.53;;;;;;;5.77;50.57;101801.66;1602177;88;21106;-73
2022/04/30 03:26:57;;;;;;;11.77;6.10;;;;;;;5.77;50.60;101805.51;1615483;88;21080;-73
2022/04/30 03:29:23;;;;;;;9.90;6.20;;;;;;;5.78;50.68;101801.24;1616456;88;21377;-74
2022/04/30 03:31:49;;;;;;;9.60;5.45;;;;;;;5.68;50.70;101782.66;1614671;88;21144;-74
2022/04/30 03:34:22;;;;;;;10.10;5.50;;;;;;;5.80;50.82;101800.45;1600851;88;21096;-74
2022/04/30 03:36:47;;;;;;;8.03;6.03;;;;;;;5.83;50.84;101800.93;1610377;88;22446;-74
2022/04/30 03:39:14;;;;;;;10.23;6.13;;;;;;;5.82;50.87;101805.20;1593795;89;21090;-74
2022/04/30 03:41:39;;;;;;;10.10;6.50;;;;;;;5.81;50.95;101800.90;1594008;89;21687;-74
2022/04/30 03:44:07;;;;;;;6.37;5.10;;;;;;;5.83;51.00;101805.64;1595380;88;20943;-75
2022/04/30 03:46:34;;;;;;;11.53;5.35;;;;;;;5.85;51.08;101801.42;1587447;88;101449;-73
2022/04/30 03:49:01;;;;;;;10.40;6.30;;;;;;;5.89;51.12;101808.80;1585911;89;21132;-74
2022/04/30 03:51:27;;;;;;;11.50;5.60;;;;;;;5.90;51.19;101806.69;1595177;89;21077;-74
2022/04/30 03:53:53;;;;;;;8.43;5.07;;;;;;;5.92;51.25;101804.60;1594865;89;21690;-74
2022/04/30 03:56:20;;;;;;;8.00;5.67;;;;;;;5.93;51.31;101799.92;1595449;89;21053;-74
2022/04/30 03:58:47;;;;;;;15.60;5.83;;;;;;;5.96;51.44;101802.55;1572787;89;21136;-75
2022/04/30 04:01:20;;;;;;;9.45;5.55;;;;;;;6.03;51.49;101803.55;1565183;91;21034;-75
2022/04/30 04:03:46;;;;;;;9.70;5.90;;;;;;;6.13;51.55;101804.20;1582452;89;20938;-74
2022/04/30 04:06:13;;;;;;;13.68;5.92;;;;;;;6.24;51.64;101809.53;1553183;89;413530;-74
2022/04/30 04:08:40;;;;;;;10.38;6.15;;;;;;;6.37;51.72;101806.38;1585403;89;21515;-74
2022/04/30 04:11:10;;;;;;;11.20;5.85;;;;;;;6.52;51.78;101806.70;1593359;89;24081;-75
2022/04/30 04:19:03;;;;;;;17.32;6.40;;;;;;;6.88;51.90;101805.21;1591866;89;21133;-74
2022/04/30 04:21:29;;;;;;;11.18;5.72;;;;;;;6.97;51.93;101807.95;1592240;89;21580;-74
2022/04/30 04:26:39;;;;;;;17.75;9.05;;;;;;;7.11;52.03;101804.34;1566563;89;21149;-74
2022/04/30 04:29:05;;;;;;;11.30;6.43;;;;;;;7.18;52.06;101807.45;1576329;89;21431;-74
2022/04/30 04:31:31;;;;;;;10.67;6.13;;;;;;;7.24;52.13;101807.98;1585413;89;26599;-73
2022/04/30 04:33:57;;;;;;;11.05;5.90;;;;;;;7.29;52.15;101809.76;1593187;89;21588;-73
2022/04/30 04:36:24;;;;;;;10.83;6.40;;;;;;;7.33;52.21;101810.67;1577617;89;20957;-74
2022/04/30 04:38:50;;;;;;;11.45;6.12;;;;;;;7.42;52.30;101815.11;1584993;89;21084;-74
2022/04/30 04:41:16;;;;;;;9.95;5.85;;;;;;;7.51;52.31;101803.67;1603899;89;21080;-74
2022/04/30 04:43:42;;;;;;;7.03;5.40;;;;;;;7.59;52.34;101810.67;1590099;88;21882;-74
2022/04/30 04:46:09;;;;;;;11.70;5.77;;;;;;;7.68;52.39;101816.39;1587741;87;20913;-74
2022/04/30 04:48:36;;;;;;;9.15;5.75;;;;;;;7.77;52.42;101812.66;1599500;88;21591;-75
2022/04/30 04:51:03;;;;;;;102.83;10.27;;;;;;;7.83;52.45;101815.72;1473091;89;10000308;-75
2022/04/30 04:53:30;;;;;;;13.78;5.92;;;;;;;7.90;52.50;101806.81;1604289;89;21111;-74
2022/04/30 04:55:56;;;;;;;9.38;6.53;;;;;;;7.97;52.49;101800.91;1606484;88;20921;-74
2022/04/30 04:58:22;;;;;;;12.07;6.40;;;;;;;8.05;52.53;101804.01;1566803;90;20974;-74
2022/04/30 05:00:48;;;;;;;10.97;6.50;;;;;;;8.12;52.57;101804.11;1580133;90;20938;-73
2022/04/30 05:03:15;;;;;;;11.85;6.17;;;;;;;8.18;52.54;101811.92;1580032;90;21442;-74
2022/04/30 05:05:41;;;;;;;9.45;6.12;;;;;;;8.24;52.62;101802.12;1579958;90;20906;-74
2022/04/30 05:08:07;;;;;;;10.90;6.73;;;;;;;8.30;52.66;101804.34;1579611;90;21012;-74
2022/04/30 05:10:34;;;;;;;15.13;7.17;;;;;;;8.40;52.69;101809.62;1578792;90;21569;-74
2022/04/30 05:13:00;;;;;;;8.08;5.40;;;;;;;8.47;52.74;101803.69;1603253;88;20941;-74
2022/04/30 05:15:26;;;;;;;13.53;6.35;;;;;;;8.55;52.78;101801.64;1605695;89;21454;-74
2022/04/30 05:17:52;;;;;;;12.30;6.30;;;;;;;8.63;52.79;101810.33;1606331;88;21007;-74
2022/04/30 05:20:19;;;;;;;8.00;6.43;;;;;;;8.71;52.80;101811.70;1603993;88;21084;-74
2022/04/30 05:22:46;;;;;;;12.70;7.05;;;;;;;8.76;52.80;101810.04;1597795;87;21240;-74
2022/04/30 05:25:13;;;;;;;;;;;;;;;8.87;52.93;101813.56;1568105;90;21137;-74
2022/04/30 05:27:40;;;;;;;9.58;6.83;;;;;;;9.00;53.28;101811.97;1564675;90;20465;-74
2022/04/30 05:30:08;;;;;;;8.53;6.30;;;;;;;9.10;52.93;101812.92;1559482;90;21144;-74
2022/04/30 05:32:34;;;;;;;10.75;6.40;;;;;;;9.23;53.06;101810.47;1577443;88;20961;-74
2022/04/30 05:35:00;;;;;;;9.05;6.45;;;;;;;9.36;53.03;101809.28;1590757;87;21475;-75
2022/04/30 05:37:27;;;;;;;10.38;7.30;;;;;;;9.45;53.04;101809.33;1605410;88;20933;-75
2022/04/30 05:39:52;;;;;;;14.77;6.97;;;;;;;9.53;53.01;101811.12;1606735;89;20942;-76
2022/04/30 05:42:18;;;;;;;8.73;6.50;;;;;;;9.56;53.03;101812.86;1604410;88;26383;-75
2022/04/30 05:44:47;;;;;;;8.10;6.40;;;;;;;9.61;53.04;101820.22;1585996;89;20957;-75
2022/04/30 05:47:13;;;;;;;13.30;6.72;;;;;;;9.68;53.10;101822.41;1584281;88;20952;-75
2022/04/30 05:49:39;;;;;;;14.47;6.58;;;;;;;9.71;53.12;101819.85;1583971;88;21005;-75
2022/04/30 05:52:06;;;;;;;12.07;7.20;;;;;;;9.74;53.15;101822.03;1572207;88;25050;-75
2022/04/30 05:54:32;;;;;;;14.17;6.80;;;;;;;9.80;53.17;101816.91;1581380;88;20907;-75
2022/04/30 05:56:59;;;;;;;12.23;7.00;;;;;;;9.89;53.23;101816.06;1585652;89;20941;-75
2022/04/30 05:59:26;;;;;;;11.75;7.45;;;;;;;9.95;53.25;101815.68;1586913;88;21489;-74
2022/04/30 06:01:52;;;;;;;10.85;7.28;;;;;;;10.04;53.25;101811.42;1577656;88;21657;-74
2022/04/30 06:04:18;;;;;;;10.50;7.30;;;;;;;10.12;53.28;101810.61;1578531;88;20969;-75
2022/04/30 06:06:44;;;;;;;12.77;7.87;;;;;;;10.21;53.27;101811.98;1603548;87;20953;-75
2022/04/30 06:09:10;;;;;;;15.68;7.20;;;;;;;10.23;53.29;101812.84;1601364;87;21545;-75
2022/04/30 06:11:36;;;;;;;15.97;7.17;;;;;;;10.31;53.32;101817.19;1596054;87;20938;-75
2022/04/30 06:14:02;;;;;;;16.48;8.20;;;;;;;10.36;53.34;101815.06;1600210;87;21068;-76
2022/04/30 06:16:28;;;;;;;11.35;7.80;;;;;;;10.40;53.27;101813.35;1600060;87;20989;-75
2022/04/30 06:18:55;;;;;;;14.77;7.67;;;;;;;10.45;53.41;101809.03;1596351;87;20977;-74
2022/04/30 06:21:22;;;;;;;20.43;11.15;;;;;;;10.53;53.45;101813.80;1570522;90;21013;-75
2022/04/30 06:23:48;;;;;;;13.50;8.95;;;;;;;10.59;53.42;101815.98;1576801;90;20976;-76
2022/04/30 06:26:14;;;;;;;12.55;8.53;;;;;;;10.67;53.47;101817.30;1588132;90;20996;-75
2022/04/30 06:28:41;;;;;;;10.03;7.45;;;;;;;10.76;53.45;101819.05;1605038;88;20929;-75
2022/04/30 06:31:07;;;;;;;13.55;7.83;;;;;;;10.81;53.42;101815.61;1587315;89;20973;-76
2022/04/30 06:33:33;;;;;;;15.75;7.83;;;;;;;10.89;53.46;101815.63;1575578;89;20931;-75
2022/04/30 06:36:00;;;;;;;11.60;8.18;;;;;;;10.95;53.47;101819.49;1574420;89;21797;-75
2022/04/30 06:38:27;;;;;;;15.93;8.98;;;;;;;11.07;53.52;101818.22;1548484;89;20998;-75
2022/04/30 06:40:57;;;;;;;17.37;8.40;;;;;;;11.18;53.39;101823.41;1573802;89;21020;-74
2022/04/30 06:43:23;;;;;;;24.27;9.10;;;;;;;11.20;53.41;101821.26;1574093;89;20948;-75
2022/04/30 06:45:49;;;;;;;16.67;8.80;;;;;;;11.24;53.42;101820.39;1566083;91;20950;-75
2022/04/30 06:48:18;;;;;;;13.45;7.83;;;;;;;11.34;53.48;101824.28;1559171;91;20945;-75
2022/04/30 06:50:45;;;;;;;13.77;8.77;;;;;;;11.42;53.48;101818.67;1576343;89;21013;-75
2022/04/30 06:58:44;;;;;;;13.55;8.25;;;;;;;11.73;53.50;101819.05;1592957;88;22077;-76
2022/04/30 07:03:53;;;;;;;13.15;7.55;;;;;;;11.94;53.46;101822.08;1577736;89;21537;-75
2022/04/30 07:06:19;;;;;;;10.38;7.90;;;;;;;12.01;53.42;101815.12;1592030;89;21126;-75
2022/04/30 07:08:45;;;;;;;11.70;8.08;;;;;;;12.09;53.44;101823.73;1583751;89;21089;-75
2022/04/30 07:11:14;;;;;;;16.27;7.87;;;;;;;12.21;53.42;101818.08;1563659;90;21068;-76
2022/04/30 07:13:40;;;;;;;13.03;7.80;;;;;;;12.30;53.40;101815.03;1591816;89;20957;-76
2022/04/30 07:16:06;;;;;;;14.07;7.87;;;;;;;12.38;53.38;101814.56;1561925;91;21137;-75
2022/04/30 07:18:33;;;;;;;11.68;7.53;;;;;;;12.48;53.41;101807.14;1585028;88;21005;-74
2022/04/30 07:20:59;;;;;;;10.10;7.62;;;;;;;12.63;53.43;101808.80;1560431;89;21523;-74
2022/04/30 07:23:25;;;;;;;14.33;8.07;;;;;;;12.76;53.37;101813.05;1569000;89;21592;-75
2022/04/30 07:25:51;;;;;;;14.73;7.15;;;;;;;12.89;53.36;101817.30;1565741;89;21588;-79
2022/04/30 07:28:17;;;;;;;10.53;7.90;;;;;;;12.97;53.33;101823.74;1580105;88;21600;-74
2022/04/30 07:30:43;;;;;;;14.33;8.13;;;;;;;13.07;53.37;101821.48;1591150;88;21690;-75
2022/04/30 07:33:09;;;;;;;13.33;7.53;;;;;;;13.16;53.35;101821.45;1590367;88;21619;-77
2022/04/30 07:35:35;;;;;;;9.20;7.13;;;;;;;13.29;53.37;101817.03;1590492;88;21575;-77
2022/04/30 07:38:01;;;;;;;10.37;7.13;;;;;;;13.39;53.33;101813.05;1563754;89;20962;-77
2022/04/30 07:40:27;;;;;;;12.07;6.80;;;;;;;13.50;53.33;101814.25;1543925;89;21022;-77
2022/04/30 07:42:53;;;;;;;16.03;7.70;;;;;;;13.66;53.31;101815.80;1545594;90;21768;-77
2022/04/30 07:45:19;;;;;;;12.03;7.03;;;;;;;13.83;53.09;101792.25;1589694;88;20953;-77
2022/04/30 07:47:45;;;;;;;10.15;7.10;;;;;;;13.83;53.09;101792.25;1541169;89;32010;-78
2022/04/30 07:50:12;;;;;;;12.93;7.33;;;;;;;14.02;53.21;101805.91;1512272;93;21168;-73
2022/04/30 07:52:38;;;;;;;15.95;7.67;;;;;;;14.15;53.26;101813.53;1546331;91;21168;-74
2022/04/30 07:55:05;;;;;;;11.57;7.50;;;;;;;14.31;53.27;101815.52;1545968;91;21036;-75
2022/04/30 07:57:32;;;;;;;9.63;6.50;;;;;;;14.42;53.20;101813.67;1542458;91;21462;-74
2022/04/30 07:59:58;;;;;;;;;;;;;;;14.53;53.21;101814.40;1550578;91;20933;-79
2022/04/30 08:02:25;;;;;;;12.50;5.97;;;;;;;14.61;53.11;101797.34;1548899;91;20166;-77
2022/04/30 08:04:51;;;;;;;9.63;5.00;;;;;;;14.61;53.11;101797.34;1543543;91;20958;-77
2022/04/30 08:07:17;;;;;;;10.27;5.67;;;;;;;14.85;53.00;101815.67;1545689;91;21020;-77
2022/04/30 08:09:43;;;;;;;16.42;6.37;;;;;;;14.99;52.98;101811.56;1526393;91;21296;-77
2022/04/30 08:12:10;;;;;;;10.73;6.20;;;;;;;15.04;52.81;101809.75;1542749;91;21537;-77
2022/04/30 08:14:36;;;;;;;10.38;6.47;;;;;;;15.10;52.83;101807.88;1548121;91;20921;-77
2022/04/30 08:17:03;;;;;;;10.38;6.10;;;;;;;15.14;52.75;101809.55;1543137;91;20981;-77
2022/04/30 08:19:29;;;;;;;13.85;5.80;;;;;;;15.16;52.72;101807.78;1525904;92;21423;-77
2022/04/30 08:21:55;;;;;;;13.90;6.73;;;;;;;15.27;52.77;101807.62;1548937;91;20949;-76
2022/04/30 08:24:24;;;;;;;10.15;6.83;;;;;;;15.34;52.56;101807.94;1548823;91;20982;-77
2022/04/30 08:26:51;;;;;;;9.03;5.80;;;;;;;15.41;52.54;101807.39;1548033;91;20941;-76
2022/04/30 08:29:17;;;;;;;10.95;6.25;;;;;;;15.50;52.54;101808.09;1546069;91;21118;-77
2022/04/30 08:31:43;;;;;;;13.13;5.93;;;;;;;15.61;52.52;101809.22;1548218;92;21469;-77
2022/04/30 08:34:09;;;;;;;8.28;5.70;;;;;;;15.76;52.42;101805.47;1544981;92;21096;-76
2022/04/30 08:36:35;;;;;;;7.63;6.73;;;;;;;15.85;52.21;101808.77;1527192;92;21077;-76
2022/04/30 08:39:02;;;;;;;11.90;5.87;;;;;;;15.90;52.14;101806.08;1553752;90;20988;-76
2022/04/30 08:41:28;;;;;;;8.05;5.37;;;;;;;15.94;52.12;101804.27;1555424;91;20942;-77
2022/04/30 08:43:55;;;;;;;12.05;6.00;;;;;;;16.00;52.04;101808.93;1555572;90;20988;-78
2022/04/30 08:46:22;;;;;;;9.28;6.30;;;;;;;16.07;51.93;101808.37;1515089;93;20986;-76
2022/04/30 08:48:49;;;;;;;9.55;5.30;;;;;;;16.08;51.89;101810.95;1514512;93;21574;-77
2022/04/30 08:51:16;;;;;;;13.30;5.87;;;;;;;16.14;51.81;101808.62;1505727;94;21010;-77
2022/04/30 08:53:42;;;;;;;10.45;5.20;;;;;;;16.24;51.74;101806.25;1512899;93;21002;-77
2022/04/30 08:56:10;;;;;;;7.20;4.87;;;;;;;16.34;51.64;101803.87;1514824;93;20942;-77
2022/04/30 08:58:36;;;;;;;7.47;5.60;;;;;;;16.44;51.54;101805.84;1488151;93;21017;-76
2022/04/30 09:01:07;;;;;;;11.30;5.62;;;;;;;16.53;51.45;101803.03;1556679;90;21004;-76
2022/04/30 09:03:36;;;;;;;6.97;4.62;;;;;;;16.64;51.35;101805.38;1517098;93;20994;-76
2022/04/30 09:06:05;;;;;;;9.98;5.28;;;;;;;16.73;51.20;101804.77;1514011;93;21003;-76
2022/04/30 09:08:33;;;;;;;11.73;5.90;;;;;;;16.81;51.13;101803.29;1517650;93;21033;-81
2022/04/30 09:11:08;;;;;;;8.38;5.50;;;;;;;16.94;51.05;101803.87;1520270;93;20999;-80
2022/04/30 09:13:46;;;;;;;6.03;4.95;;;;;;;17.08;50.95;101801.34;1511650;94;20981;-80
2022/04/30 09:16:20;;;;;;;6.72;4.62;;;;;;;17.19;50.73;101805.83;1511629;93;21041;-81
2022/04/30 09:18:49;;;;;;;9.90;5.35;;;;;;;17.29;50.66;101802.55;1511429;93;21093;-81
2022/04/30 09:21:17;;;;;;;9.28;5.20;;;;;;;17.36;50.37;101796.27;1513782;93;21045;-80
2022/04/30 09:23:44;;;;;;;7.58;4.90;;;;;;;17.39;50.25;101803.17;1514306;93;21026;-81
2022/04/30 09:26:11;;;;;;;7.47;5.05;;;;;;;17.47;50.08;101799.47;1513991;93;21844;-81
2022/04/30 09:28:41;;;;;;;8.28;4.42;;;;;;;17.56;50.00;101800.99;1514357;93;20926;-81
2022/04/30 09:31:18;;;;;;;6.78;4.80;;;;;;;17.63;49.83;101794.70;1513774;93;21029;-81
2022/04/30 09:33:55;;;;;;;8.88;5.20;;;;;;;17.66;49.70;101784.19;1505620;93;21525;-81
2022/04/30 09:39:17;;;;;;;7.05;5.00;;;;;;;17.74;49.45;101782.20;1520520;93;21951;-81
2022/04/30 09:41:44;;;;;;;11.90;5.78;;;;;;;17.79;49.31;101792.09;1510606;93;20984;-81
2022/04/30 09:44:12;;;;;;;;;;;;;;;17.85;49.13;101785.83;1516577;94;21014;-81
2022/04/30 09:46:40;;;;;;;7.30;4.25;;;;;;;17.88;48.54;101786.20;1515062;93;20158;-81
2022/04/30 09:54:42;;;;;;;8.25;5.05;;;;;;;18.07;48.68;101779.55;1517946;93;21020;-81
2022/04/30 09:57:09;;;;;;;9.60;4.80;;;;;;;18.04;48.47;101771.34;1508657;93;21086;-79
2022/04/30 09:59:39;;;;;;;7.95;4.97;;;;;;;18.07;48.30;101776.48;1493988;94;23128;-79
2022/04/30 10:02:08;;;;;;;7.40;4.40;;;;;;;18.10;48.15;101771.61;1514005;92;20980;-79
2022/04/30 10:04:36;;;;;;;9.73;4.92;;;;;;;18.14;48.01;101769.31;1508193;94;21008;-80
2022/04/30 10:07:04;;;;;;;7.15;4.42;;;;;;;18.18;47.85;101770.94;1505393;94;21562;-80
2022/04/30 10:09:53;;;;;;;7.83;4.20;;;;;;;18.23;47.73;101771.63;1514475;94;21979;-80
2022/04/30 10:12:33;;;;;;;6.03;4.00;;;;;;;18.25;47.48;101758.50;1517771;93;21006;-80
2022/04/30 10:15:45;;;;;;;6.15;3.60;;;;;;;18.27;47.31;101765.41;1495767;94;20961;-80
2022/04/30 10:18:13;;;;;;;5.97;3.47;;;;;;;18.24;47.16;101758.95;1518784;93;20985;-80
2022/04/30 10:20:39;;;;;;;5.00;3.30;;;;;;;18.26;47.04;101758.91;1516536;93;20977;-80
2022/04/30 10:23:07;;;;;;;7.17;4.22;;;;;;;18.28;46.91;101753.17;1519616;93;21045;-80
2022/04/30 10:25:43;;;;;;;5.62;3.60;;;;;;;18.28;46.70;101750.55;1515068;93;21014;-80
2022/04/30 10:28:21;;;;;;;;;;;;;;;18.34;46.61;101752.54;1516905;93;21002;-80
2022/04/30 10:31:02;;;;;;;4.53;2.75;;;;;;;18.40;45.95;101749.73;1517129;93;20135;-80
2022/04/30 10:33:30;;;;;;;5.35;3.27;;;;;;;18.44;46.27;101750.05;1509555;94;21002;-80
2022/04/30 10:36:11;;;;;;;4.78;2.95;;;;;;;18.48;46.12;101749.50;1512257;93;20993;-80
2022/04/30 10:38:38;;;;;;;15.13;5.12;;;;;;;18.52;46.04;101744.58;1508359;93;20965;-80
2022/04/30 10:41:10;;;;;;;5.40;3.33;;;;;;;18.56;45.77;101737.48;1512380;93;21536;-80
2022/04/30 10:43:38;;;;;;;6.83;3.58;;;;;;;18.56;45.75;101740.95;1511144;94;20973;-80
2022/04/30 10:46:21;;;;;;;6.95;3.27;;;;;;;18.59;45.61;101739.55;1511150;93;21010;-81
2022/04/30 10:48:48;;;;;;;5.25;3.70;;;;;;;18.57;45.43;101743.13;1510332;94;20973;-80
2022/04/30 10:51:16;;;;;;;3.97;3.17;;;;;;;18.57;45.35;101747.91;1485973;94;21006;-80
2022/04/30 10:53:45;;;;;;;6.25;3.10;;;;;;;18.56;45.12;101738.80;1488356;94;21049;-80
2022/04/30 10:56:13;;;;;;;8.03;3.72;;;;;;;18.52;45.00;101740.64;1511615;94;20969;-80
2022/04/30 10:58:44;;;;;;;5.72;3.55;;;;;;;18.50;44.80;101735.91;1511288;93;20934;-80
2022/04/30 11:01:20;;;;;;;9.43;3.92;;;;;;;18.44;44.58;101727.78;1507266;94;20933;-80
2022/04/30 11:03:50;;;;;;;5.78;3.98;;;;;;;18.39;44.50;101727.07;1511388;94;20998;-79
2022/04/30 11:06:24;;;;;;;3.42;2.80;;;;;;;18.40;44.39;101730.09;1511170;94;21012;-79
2022/04/30 11:09:06;;;;;;;6.45;2.92;;;;;;;18.44;44.31;101719.08;1508289;94;20969;-79
2022/04/30 11:11:36;;;;;;;5.53;3.25;;;;;;;18.45;44.17;101729.50;1510508;93;21026;-80
2022/04/30 11:14:11;;;;;;;8.18;3.25;;;;;;;18.48;44.04;101724.63;1505037;94;21429;-80
2022/04/30 11:16:45;;;;;;;5.58;3.72;;;;;;;18.48;43.92;101718.08;1515452;93;21122;-80
2022/04/30 11:19:15;;;;;;;5.12;3.50;;;;;;;18.48;43.79;101720.23;1510945;94;21086;-79
2022/04/30 11:21:51;;;;;;;7.73;3.60;;;;;;;18.49;43.65;101716.72;1487074;94;21510;-79
2022/04/30 11:24:30;;;;;;;5.35;3.95;;;;;;;18.51;43.61;101715.36;1504532;94;21324;-79
2022/04/30 11:27:05;;;;;;;7.40;3.75;;;;;;;18.54;43.55;101713.95;1511603;94;20969;-80
2022/04/30 11:29:36;;;;;;;7.78;3.65;;;;;;;18.56;43.33;101711.28;1506501;93;21573;-80
2022/04/30 11:32:07;;;;;;;4.92;4.25;;;;;;;18.56;43.21;101707.36;1511344;94;21030;-80
2022/04/30 11:34:33;;;;;;;6.70;3.77;;;;;;;18.51;43.09;101714.05;1510957;94;21018;-80
2022/04/30 11:37:01;;;;;;;5.10;3.67;;;;;;;18.51;42.98;101705.73;1505228;94;21060;-80
2022/04/30 11:39:29;;;;;;;6.40;3.40;;;;;;;18.48;42.78;101708.91;1504261;93;20998;-75
2022/04/30 11:41:57;;;;;;;6.50;3.47;;;;;;;18.44;42.77;101704.22;1540941;92;21524;-75
2022/04/30 11:44:26;;;;;;;5.83;3.83;;;;;;;18.46;42.62;101705.02;1548539;92;20994;-75
2022/04/30 11:46:54;;;;;;;10.08;3.85;;;;;;;18.54;42.61;101702.16;1547644;92;20977;-75
2022/04/30 11:49:23;;;;;;;4.87;2.95;;;;;;;18.60;42.26;101697.19;1548459;92;20973;-75
2022/04/30 11:51:51;;;;;;;6.97;3.50;;;;;;;18.62;42.24;101692.79;1547249;92;21004;-75
2022/04/30 11:54:22;;;;;;;3.35;2.85;;;;;;;18.67;42.12;101696.97;1522699;91;20961;-75
2022/04/30 11:56:51;;;;;;;5.17;3.10;;;;;;;18.74;42.02;101696.30;1466360;94;34058;-77
2022/04/30 11:59:31;;;;;;;;;;;;;;;18.81;41.77;101698.66;1489991;95;21066;-75
2022/04/30 12:02:14;;;;;;;6.20;2.40;;;;;;;18.85;41.12;101693.72;1508682;94;20146;-76
2022/04/30 12:04:41;;;;;;;9.60;3.12;;;;;;;18.92;41.67;101685.66;1543358;92;21032;-76
2022/04/30 12:07:10;;;;;;;5.03;2.65;;;;;;;18.97;41.52;101685.91;1541608;91;20978;-76
2022/04/30 12:09:40;;;;;;;5.17;2.83;;;;;;;18.98;41.31;101673.20;1539862;91;21087;-76
2022/04/30 12:12:16;;;;;;;4.65;2.25;;;;;;;18.99;41.26;101674.06;1545884;91;20969;-76